sensor_id;sensor_type;location;lat;lon;timestamp;temperature;humidity
14993;DHT22;7592;51.088;13.732;2022-10-17T00:04:26;13.90;99.90
14993;DHT22;7592;51.088;13.732;2022-10-17T00:09:19;13.90;99.90
14993;DHT22;7592;51.088;13.732;2022-10-17T00:14:12;14.00;99.90
14993;DHT22;7592;51.088;13.732;2022-10-17T00:19:06;13.80;99.90
14993;DHT22;7592;51.088;13.732;2022-10-17T00:23:59;13.70;99.90
14993;DHT22;7592;51.088;13.732;2022-10-17T00:28:53;13.60;99.90
14993;DHT22;7592;51.088;13.732;2022-10-17T00:33:46;13.60;99.90
14993;DHT22;7592;51.088;13.732;2022-10-17T00:38:41;13.40;99.90
14993;DHT22;7592;51.088;13.732;2022-10-17T00:44:02;13.40;99.90
14993;DHT22;7592;51.088;13.732;2022-10-17T00:48:59;13.30;99.90
14993;DHT22;7592;51.088;13.732;2022-10-17T00:53:53;13.20;99.90
14993;DHT22;7592;51.088;13.732;2022-10-17T00:58:47;13.20;99.90
14993;DHT22;7592;51.088;13.732;2022-10-17T01:03:40;13.20;99.90
14993;DHT22;7592;51.088;13.732;2022-10-17T01:08:33;13.10;99.90
14993;DHT22;7592;51.088;13.732;2022-10-17T01:14:11;13.00;99.90
14993;DHT22;7592;51.088;13.732;2022-10-17T01:29:44;12.80;99.90
14993;DHT22;7592;51.088;13.732;2022-10-17T01:34:44;12.70;99.90
14993;DHT22;7592;51.088;13.732;2022-10-17T01:39:46;12.70;99.90
14993;DHT22;7592;51.088;13.732;2022-10-17T01:44:54;12.70;99.90
14993;DHT22;7592;51.088;13.732;2022-10-17T01:49:53;12.70;99.90
14993;DHT22;7592;51.088;13.732;2022-10-17T01:54:52;12.60;99.90
14993;DHT22;7592;51.088;13.732;2022-10-17T01:59:47;12.60;99.90
14993;DHT22;7592;51.088;13.732;2022-10-17T02:04:46;12.50;99.90
14993;DHT22;7592;51.088;13.732;2022-10-17T02:09:41;12.40;99.90
14993;DHT22;7592;51.088;13.732;2022-10-17T02:20:24;12.30;99.90
14993;DHT22;7592;51.088;13.732;2022-10-17T02:25:50;12.30;99.90
14993;DHT22;7592;51.088;13.732;2022-10-17T02:30:59;12.30;99.90
14993;DHT22;7592;51.088;13.732;2022-10-17T02:35:57;12.30;99.90
14993;DHT22;7592;51.088;13.732;2022-10-17T02:40:52;12.50;99.90
14993;DHT22;7592;51.088;13.732;2022-10-17T02:45:46;12.40;99.90
14993;DHT22;7592;51.088;13.732;2022-10-17T02:55:42;12.30;99.90
14993;DHT22;7592;51.088;13.732;2022-10-17T03:00:51;12.20;99.90
14993;DHT22;7592;51.088;13.732;2022-10-17T03:05:44;12.20;99.90
14993;DHT22;7592;51.088;13.732;2022-10-17T03:15:52;12.20;99.90
14993;DHT22;7592;51.088;13.732;2022-10-17T03:20:44;12.10;99.90
14993;DHT22;7592;51.088;13.732;2022-10-17T03:25:38;12.20;99.90
14993;DHT22;7592;51.088;13.732;2022-10-17T03:30:31;12.10;99.90
14993;DHT22;7592;51.088;13.732;2022-10-17T03:35:24;12.10;99.90
14993;DHT22;7592;51.088;13.732;2022-10-17T03:40:17;12.10;99.90
14993;DHT22;7592;51.088;13.732;2022-10-17T03:45:10;12.10;99.90
14993;DHT22;7592;51.088;13.732;2022-10-17T03:50:04;12.00;99.90
14993;DHT22;7592;51.088;13.732;2022-10-17T03:55:00;12.00;99.90
14993;DHT22;7592;51.088;13.732;2022-10-17T03:59:53;12.00;99.90
14993;DHT22;7592;51.088;13.732;2022-10-17T04:04:46;12.10;99.90
14993;DHT22;7592;51.088;13.732;2022-10-17T04:09:39;12.10;99.90
14993;DHT22;7592;51.088;13.732;2022-10-17T04:14:36;12.10;99.90
14993;DHT22;7592;51.088;13.732;2022-10-17T04:19:29;12.00;99.90
14993;DHT22;7592;51.088;13.732;2022-10-17T04:24:22;12.00;99.90
14993;DHT22;7592;51.088;13.732;2022-10-17T04:29:34;12.00;99.90
14993;DHT22;7592;51.088;13.732;2022-10-17T04:34:33;11.90;99.90
14993;DHT22;7592;51.088;13.732;2022-10-17T04:39:25;12.00;99.90
14993;DHT22;7592;51.088;13.732;2022-10-17T04:44:19;11.90;99.90
14993;DHT22;7592;51.088;13.732;2022-10-17T04:49:15;11.90;99.90
14993;DHT22;7592;51.088;13.732;2022-10-17T04:54:12;11.90;99.90
14993;DHT22;7592;51.088;13.732;2022-10-17T04:59:07;11.90;99.90
14993;DHT22;7592;51.088;13.732;2022-10-17T05:04:02;11.80;99.90
14993;DHT22;7592;51.088;13.732;2022-10-17T05:09:09;11.80;99.90
14993;DHT22;7592;51.088;13.732;2022-10-17T05:14:25;11.70;99.90
14993;DHT22;7592;51.088;13.732;2022-10-17T05:19:48;11.70;99.90
14993;DHT22;7592;51.088;13.732;2022-10-17T05:24:49;11.70;99.90
14993;DHT22;7592;51.088;13.732;2022-10-17T05:29:50;11.70;99.90
14993;DHT22;7592;51.088;13.732;2022-10-17T05:42:02;11.70;99.90
14993;DHT22;7592;51.088;13.732;2022-10-17T05:59:20;12.00;99.90
14993;DHT22;7592;51.088;13.732;2022-10-17T06:10:00;12.30;99.90
14993;DHT22;7592;51.088;13.732;2022-10-17T06:14:57;12.50;99.90
14993;DHT22;7592;51.088;13.732;2022-10-17T06:19:56;12.80;99.90
14993;DHT22;7592;51.088;13.732;2022-10-17T06:24:49;13.00;99.90
14993;DHT22;7592;51.088;13.732;2022-10-17T06:29:44;13.30;99.90
14993;DHT22;7592;51.088;13.732;2022-10-17T06:34:36;13.40;99.90
14993;DHT22;7592;51.088;13.732;2022-10-17T06:39:30;13.70;99.90
14993;DHT22;7592;51.088;13.732;2022-10-17T06:50:23;14.60;99.90
14993;DHT22;7592;51.088;13.732;2022-10-17T06:55:34;15.00;99.90
14993;DHT22;7592;51.088;13.732;2022-10-17T07:00:49;15.40;99.90
14993;DHT22;7592;51.088;13.732;2022-10-17T07:05:42;15.80;99.90
14993;DHT22;7592;51.088;13.732;2022-10-17T07:10:43;16.20;99.90
14993;DHT22;7592;51.088;13.732;2022-10-17T07:15:38;16.60;99.90
14993;DHT22;7592;51.088;13.732;2022-10-17T07:20:32;17.60;99.90
14993;DHT22;7592;51.088;13.732;2022-10-17T07:25:27;19.90;99.90
14993;DHT22;7592;51.088;13.732;2022-10-17T07:30:24;21.80;99.90
14993;DHT22;7592;51.088;13.732;2022-10-17T07:35:24;20.40;99.90
14993;DHT22;7592;51.088;13.732;2022-10-17T07:40:17;19.20;99.90
14993;DHT22;7592;51.088;13.732;2022-10-17T07:45:10;18.70;99.90
14993;DHT22;7592;51.088;13.732;2022-10-17T07:50:04;19.70;99.90
14993;DHT22;7592;51.088;13.732;2022-10-17T07:54:58;21.40;99.90
14993;DHT22;7592;51.088;13.732;2022-10-17T07:59:51;22.30;99.90
14993;DHT22;7592;51.088;13.732;2022-10-17T08:04:45;21.30;99.90
14993;DHT22;7592;51.088;13.732;2022-10-17T08:09:37;20.20;99.90
14993;DHT22;7592;51.088;13.732;2022-10-17T08:14:30;19.80;99.90
14993;DHT22;7592;51.088;13.732;2022-10-17T08:19:22;19.40;99.90
14993;DHT22;7592;51.088;13.732;2022-10-17T08:24:15;19.30;99.90
14993;DHT22;7592;51.088;13.732;2022-10-17T08:29:15;19.50;99.90
14993;DHT22;7592;51.088;13.732;2022-10-17T08:34:08;19.80;99.90
14993;DHT22;7592;51.088;13.732;2022-10-17T08:39:00;19.90;99.90
14993;DHT22;7592;51.088;13.732;2022-10-17T08:43:57;20.20;99.90
14993;DHT22;7592;51.088;13.732;2022-10-17T08:48:51;20.40;99.90
14993;DHT22;7592;51.088;13.732;2022-10-17T08:59:27;20.50;99.90
14993;DHT22;7592;51.088;13.732;2022-10-17T09:20:03;22.70;99.90
14993;DHT22;7592;51.088;13.732;2022-10-17T09:25:03;24.30;99.90
14993;DHT22;7592;51.088;13.732;2022-10-17T09:30:29;24.50;99.90
14993;DHT22;7592;51.088;13.732;2022-10-17T09:35:39;25.00;99.90
14993;DHT22;7592;51.088;13.732;2022-10-17T09:40:36;25.40;99.90
14993;DHT22;7592;51.088;13.732;2022-10-17T09:45:33;27.10;99.90
14993;DHT22;7592;51.088;13.732;2022-10-17T09:50:33;26.40;99.90
14993;DHT22;7592;51.088;13.732;2022-10-17T10:00:37;28.60;99.90
14993;DHT22;7592;51.088;13.732;2022-10-17T10:05:32;28.20;99.90
14993;DHT22;7592;51.088;13.732;2022-10-17T10:10:27;27.60;99.90
14993;DHT22;7592;51.088;13.732;2022-10-17T10:15:33;27.30;99.90
14993;DHT22;7592;51.088;13.732;2022-10-17T10:20:35;27.50;99.90
14993;DHT22;7592;51.088;13.732;2022-10-17T10:25:28;28.60;99.90
14993;DHT22;7592;51.088;13.732;2022-10-17T10:30:27;28.80;99.80
14993;DHT22;7592;51.088;13.732;2022-10-17T10:35:30;29.70;97.40
14993;DHT22;7592;51.088;13.732;2022-10-17T11:29:22;27.00;98.00
14993;DHT22;7592;51.088;13.732;2022-10-17T12:16:47;23.20;99.90
14993;DHT22;7592;51.088;13.732;2022-10-17T13:54:39;22.70;99.90
14993;DHT22;7592;51.088;13.732;2022-10-17T13:59:37;22.60;99.90
14993;DHT22;7592;51.088;13.732;2022-10-17T14:04:32;22.50;99.90
14993;DHT22;7592;51.088;13.732;2022-10-17T14:09:45;22.40;99.90
14993;DHT22;7592;51.088;13.732;2022-10-17T14:14:39;22.30;99.90
14993;DHT22;7592;51.088;13.732;2022-10-17T14:19:54;22.20;99.90
14993;DHT22;7592;51.088;13.732;2022-10-17T14:25:30;22.10;99.90
14993;DHT22;7592;51.088;13.732;2022-10-17T14:35:39;21.90;99.90
14993;DHT22;7592;51.088;13.732;2022-10-17T14:40:33;21.80;99.90
14993;DHT22;7592;51.088;13.732;2022-10-17T14:45:31;21.70;99.90
14993;DHT22;7592;51.088;13.732;2022-10-17T14:50:27;21.60;99.90
14993;DHT22;7592;51.088;13.732;2022-10-17T14:55:25;21.60;99.90
14993;DHT22;7592;51.088;13.732;2022-10-17T15:00:21;21.50;99.90
14993;DHT22;7592;51.088;13.732;2022-10-17T15:05:14;21.40;99.90
14993;DHT22;7592;51.088;13.732;2022-10-17T15:10:24;21.30;99.90
14993;DHT22;7592;51.088;13.732;2022-10-17T15:15:17;21.20;99.90
14993;DHT22;7592;51.088;13.732;2022-10-17T15:20:13;21.10;99.90
14993;DHT22;7592;51.088;13.732;2022-10-17T15:25:07;21.00;99.90
14993;DHT22;7592;51.088;13.732;2022-10-17T15:30:00;20.90;99.90
14993;DHT22;7592;51.088;13.732;2022-10-17T15:34:53;20.80;99.90
14993;DHT22;7592;51.088;13.732;2022-10-17T15:39:48;20.60;99.90
14993;DHT22;7592;51.088;13.732;2022-10-17T15:44:44;20.50;99.90
14993;DHT22;7592;51.088;13.732;2022-10-17T15:49:41;20.40;99.90
14993;DHT22;7592;51.088;13.732;2022-10-17T15:54:34;20.20;99.90
14993;DHT22;7592;51.088;13.732;2022-10-17T15:59:31;20.00;99.90
14993;DHT22;7592;51.088;13.732;2022-10-17T16:04:24;19.90;99.90
14993;DHT22;7592;51.088;13.732;2022-10-17T16:09:18;19.80;99.90
14993;DHT22;7592;51.088;13.732;2022-10-17T16:14:13;19.70;99.90
14993;DHT22;7592;51.088;13.732;2022-10-17T16:19:11;19.60;99.90
14993;DHT22;7592;51.088;13.732;2022-10-17T16:24:04;19.50;99.90
14993;DHT22;7592;51.088;13.732;2022-10-17T16:28:58;19.40;99.90
14993;DHT22;7592;51.088;13.732;2022-10-17T16:33:56;19.30;99.90
14993;DHT22;7592;51.088;13.732;2022-10-17T16:38:49;19.10;99.90
14993;DHT22;7592;51.088;13.732;2022-10-17T16:43:43;19.00;99.90
14993;DHT22;7592;51.088;13.732;2022-10-17T16:48:36;19.00;99.90
14993;DHT22;7592;51.088;13.732;2022-10-17T16:53:29;18.90;99.90
14993;DHT22;7592;51.088;13.732;2022-10-17T16:58:24;18.80;99.90
14993;DHT22;7592;51.088;13.732;2022-10-17T17:03:24;18.80;99.90
14993;DHT22;7592;51.088;13.732;2022-10-17T17:08:17;18.70;99.90
14993;DHT22;7592;51.088;13.732;2022-10-17T17:13:10;18.60;99.90
14993;DHT22;7592;51.088;13.732;2022-10-17T17:18:03;18.60;99.90
14993;DHT22;7592;51.088;13.732;2022-10-17T17:22:57;18.50;99.90
14993;DHT22;7592;51.088;13.732;2022-10-17T17:27:50;18.30;99.90
14993;DHT22;7592;51.088;13.732;2022-10-17T17:32:43;18.10;99.90
14993;DHT22;7592;51.088;13.732;2022-10-17T17:37:35;18.20;99.90
14993;DHT22;7592;51.088;13.732;2022-10-17T17:42:31;18.10;99.90
14993;DHT22;7592;51.088;13.732;2022-10-17T17:47:33;18.00;99.90
14993;DHT22;7592;51.088;13.732;2022-10-17T17:52:28;17.90;99.90
14993;DHT22;7592;51.088;13.732;2022-10-17T17:57:22;17.70;99.90
14993;DHT22;7592;51.088;13.732;2022-10-17T18:02:17;17.70;99.90
14993;DHT22;7592;51.088;13.732;2022-10-17T18:12:46;17.80;99.90
14993;DHT22;7592;51.088;13.732;2022-10-17T18:17:41;17.90;99.90
14993;DHT22;7592;51.088;13.732;2022-10-17T18:22:40;17.80;99.90
14993;DHT22;7592;51.088;13.732;2022-10-17T18:27:50;17.80;99.90
14993;DHT22;7592;51.088;13.732;2022-10-17T18:32:46;17.70;99.90
14993;DHT22;7592;51.088;13.732;2022-10-17T18:37:40;17.50;99.90
14993;DHT22;7592;51.088;13.732;2022-10-17T18:42:36;17.40;99.90
14993;DHT22;7592;51.088;13.732;2022-10-17T18:47:31;17.20;99.90
14993;DHT22;7592;51.088;13.732;2022-10-17T18:52:29;17.00;99.90
14993;DHT22;7592;51.088;13.732;2022-10-17T18:57:25;16.70;99.90
14993;DHT22;7592;51.088;13.732;2022-10-17T19:02:29;16.50;99.90
14993;DHT22;7592;51.088;13.732;2022-10-17T19:07:36;16.40;99.90
14993;DHT22;7592;51.088;13.732;2022-10-17T19:12:33;16.30;99.90
14993;DHT22;7592;51.088;13.732;2022-10-17T19:17:33;16.10;99.90
14993;DHT22;7592;51.088;13.732;2022-10-17T19:22:30;16.00;99.90
14993;DHT22;7592;51.088;13.732;2022-10-17T19:27:26;15.90;99.90
14993;DHT22;7592;51.088;13.732;2022-10-17T19:32:24;15.80;99.90
14993;DHT22;7592;51.088;13.732;2022-10-17T19:37:25;15.70;99.90
14993;DHT22;7592;51.088;13.732;2022-10-17T19:42:22;15.70;99.90
14993;DHT22;7592;51.088;13.732;2022-10-17T19:47:15;15.60;99.90
14993;DHT22;7592;51.088;13.732;2022-10-17T19:52:08;15.60;99.90
14993;DHT22;7592;51.088;13.732;2022-10-17T19:57:03;15.60;99.90
14993;DHT22;7592;51.088;13.732;2022-10-17T20:02:03;15.60;99.90
14993;DHT22;7592;51.088;13.732;2022-10-17T20:06:57;15.50;99.90
14993;DHT22;7592;51.088;13.732;2022-10-17T20:42:00;15.00;99.90
14993;DHT22;7592;51.088;13.732;2022-10-17T20:46:53;15.00;99.90
14993;DHT22;7592;51.088;13.732;2022-10-17T20:52:10;14.90;99.90
14993;DHT22;7592;51.088;13.732;2022-10-17T20:57:40;14.80;99.90
14993;DHT22;7592;51.088;13.732;2022-10-17T21:02:39;14.80;99.90
14993;DHT22;7592;51.088;13.732;2022-10-17T21:07:36;14.70;99.90
14993;DHT22;7592;51.088;13.732;2022-10-17T21:12:31;14.80;99.90
14993;DHT22;7592;51.088;13.732;2022-10-17T21:17:49;14.80;99.90
14993;DHT22;7592;51.088;13.732;2022-10-17T21:22:42;14.70;99.90
14993;DHT22;7592;51.088;13.732;2022-10-17T21:27:38;14.60;99.90
14993;DHT22;7592;51.088;13.732;2022-10-17T21:32:31;14.60;99.90
14993;DHT22;7592;51.088;13.732;2022-10-17T21:37:42;14.50;99.90
14993;DHT22;7592;51.088;13.732;2022-10-17T21:42:35;14.50;99.90
14993;DHT22;7592;51.088;13.732;2022-10-17T21:47:27;14.50;99.90
14993;DHT22;7592;51.088;13.732;2022-10-17T21:52:21;14.40;99.90
14993;DHT22;7592;51.088;13.732;2022-10-17T21:57:20;14.40;99.90
14993;DHT22;7592;51.088;13.732;2022-10-17T22:02:13;14.60;99.90
14993;DHT22;7592;51.088;13.732;2022-10-17T22:07:10;14.70;99.90
14993;DHT22;7592;51.088;13.732;2022-10-17T22:12:04;14.70;99.90
14993;DHT22;7592;51.088;13.732;2022-10-17T22:16:57;14.60;99.90
14993;DHT22;7592;51.088;13.732;2022-10-17T22:21:50;14.50;99.90
14993;DHT22;7592;51.088;13.732;2022-10-17T22:26:43;14.50;99.90
14993;DHT22;7592;51.088;13.732;2022-10-17T22:31:51;14.40;99.90
14993;DHT22;7592;51.088;13.732;2022-10-17T22:36:44;14.30;99.90
14993;DHT22;7592;51.088;13.732;2022-10-17T22:41:38;14.20;99.90
14993;DHT22;7592;51.088;13.732;2022-10-17T22:46:31;14.20;99.90
14993;DHT22;7592;51.088;13.732;2022-10-17T22:51:24;14.20;99.90
14993;DHT22;7592;51.088;13.732;2022-10-17T22:56:19;14.10;99.90
14993;DHT22;7592;51.088;13.732;2022-10-17T23:01:14;14.10;99.90
14993;DHT22;7592;51.088;13.732;2022-10-17T23:06:07;14.10;99.90
14993;DHT22;7592;51.088;13.732;2022-10-17T23:11:01;14.00;99.90
14993;DHT22;7592;51.088;13.732;2022-10-17T23:15:55;14.00;99.90
14993;DHT22;7592;51.088;13.732;2022-10-17T23:20:49;13.90;99.90
14993;DHT22;7592;51.088;13.732;2022-10-17T23:32:55;13.80;99.90
14993;DHT22;7592;51.088;13.732;2022-10-17T23:37:48;13.70;99.90
14993;DHT22;7592;51.088;13.732;2022-10-17T23:42:46;13.80;99.90
14993;DHT22;7592;51.088;13.732;2022-10-17T23:47:38;13.70;99.90
14993;DHT22;7592;51.088;13.732;2022-10-17T23:52:32;13.70;99.90
14993;DHT22;7592;51.088;13.732;2022-10-17T23:57:24;13.60;99.90
